Time;durP1;ratioP1;P1;durP2;ratioP2;P2;SDS_P1;SDS_P2;PMS_P1;PMS_P2;Temp;Humidity;BMP_temperature;BMP_pressure;BME280_temperature;BME280_humidity;BME280_pressure;Samples;Min_cycle;Max_cycle;Signal;HPM_P1;HPM_P2
2024/04/21 00:01:21;;;;;;;0.30;0.30;;;12.20;43.20;;;;;;6775792;26;20337;-67
2024/04/21 00:04:24;;;;;;;1.30;0.50;;;12.20;43.20;;;;;;6807567;26;19993;-68
2024/04/21 00:07:25;;;;;;;2.25;0.60;;;12.20;43.20;;;;;;6805821;26;20093;-67
2024/04/21 00:10:26;;;;;;;0.30;0.30;;;12.20;43.30;;;;;;6838236;26;20675;-69
2024/04/21 00:13:26;;;;;;;0.38;0.32;;;12.20;43.30;;;;;;6806159;26;19993;-67
2024/04/21 00:16:29;;;;;;;0.55;0.45;;;12.20;43.40;;;;;;6807610;26;20385;-67
2024/04/21 00:19:30;;;;;;;0.65;0.45;;;12.20;43.40;;;;;;6806023;26;19993;-67
2024/04/21 00:22:31;;;;;;;1.27;0.55;;;12.10;43.50;;;;;;6770493;26;20339;-68
2024/04/21 00:30:10;;;;;;;2.58;0.60;;;12.10;43.60;;;;;;6836414;26;20005;-67
2024/04/21 00:33:11;;;;;;;0.28;0.28;;;12.10;43.70;;;;;;6838910;26;19997;-68
2024/04/21 00:36:13;;;;;;;0.75;0.60;;;12.00;43.80;;;;;;6805217;26;20008;-68
2024/04/21 00:39:13;;;;;;;0.40;0.40;;;12.00;43.90;;;;;;6806199;26;20001;-68
2024/04/21 00:42:15;;;;;;;1.63;0.43;;;11.90;44.10;;;;;;6838047;26;20611;-67
2024/04/21 00:45:17;;;;;;;1.25;0.50;;;11.90;44.20;;;;;;6838446;26;20001;-67
2024/04/21 00:48:20;;;;;;;1.23;0.50;;;11.90;44.40;;;;;;6837358;25;20482;-67
2024/04/21 00:51:25;;;;;;;0.63;0.50;;;11.80;44.50;;;;;;6805657;26;19994;-68
2024/04/21 00:54:26;;;;;;;1.02;0.52;;;11.70;44.60;;;;;;6837492;26;19989;-67
2024/04/21 00:57:27;;;;;;;0.55;0.55;;;11.70;44.70;;;;;;6837304;26;20005;-67
2024/04/21 01:00:28;;;;;;;2.17;0.52;;;11.60;44.80;;;;;;6803507;25;20378;-68
2024/04/21 01:03:29;;;;;;;0.77;0.52;;;11.70;45.00;;;;;;6804144;26;19994;-68
2024/04/21 01:06:30;;;;;;;1.77;0.47;;;11.60;45.00;;;;;;6838173;26;20125;-67
2024/04/21 01:09:32;;;;;;;1.25;0.60;;;11.60;45.00;;;;;;6836449;26;20013;-68
2024/04/21 01:12:42;;;;;;;0.45;0.45;;;11.60;45.00;;;;;;6773830;26;20001;-67
2024/04/21 01:15:44;;;;;;;1.05;0.68;;;11.60;45.00;;;;;;6838013;26;20012;-68
2024/04/21 01:18:45;;;;;;;0.95;0.70;;;11.60;45.00;;;;;;6804337;26;20002;-67
2024/04/21 01:21:47;;;;;;;0.63;0.50;;;11.60;45.00;;;;;;6803483;26;20111;-68
2024/04/21 01:24:48;;;;;;;0.47;0.38;;;11.60;45.10;;;;;;6833536;26;20069;-67
2024/04/21 01:27:49;;;;;;;0.65;0.40;;;11.50;45.20;;;;;;6837332;26;20700;-67
2024/04/21 01:30:50;;;;;;;0.40;0.40;;;11.50;45.40;;;;;;6803032;26;20012;-68
2024/04/21 01:33:54;;;;;;;0.73;0.40;;;11.40;45.40;;;;;;6836981;26;19998;-67
2024/04/21 01:36:56;;;;;;;0.70;0.40;;;11.40;45.40;;;;;;6805015;25;20001;-68
2024/04/21 01:39:57;;;;;;;1.27;0.63;;;11.30;45.60;;;;;;6826846;26;20016;-66
2024/04/21 01:42:58;;;;;;;0.65;0.65;;;11.30;45.90;;;;;;6805283;26;20001;-67
2024/04/21 01:46:00;;;;;;;1.30;0.65;;;11.30;45.90;;;;;;6803632;26;20012;-68
2024/04/21 01:49:02;;;;;;;0.50;0.40;;;11.30;46.10;;;;;;6773684;25;20009;-67
2024/04/21 01:52:04;;;;;;;0.47;0.43;;;11.30;46.20;;;;;;6803617;26;20454;-68
2024/04/21 01:55:05;;;;;;;1.25;0.68;;;11.20;46.30;;;;;;6837086;25;20671;-69
2024/04/21 01:58:06;;;;;;;0.55;0.40;;;11.10;46.40;;;;;;6836483;26;21463;-69
2024/04/21 02:01:07;;;;;;;1.30;0.77;;;11.10;46.80;;;;;;6804414;26;20001;-69
2024/04/21 02:04:09;;;;;;;1.13;0.70;;;11.00;47.00;;;;;;6836553;26;19998;-68
2024/04/21 02:07:10;;;;;;;0.40;0.40;;;11.00;47.40;;;;;;6803344;25;20338;-67
2024/04/21 02:10:11;;;;;;;0.90;0.57;;;10.90;47.70;;;;;;6803450;26;20005;-67
2024/04/21 02:13:12;;;;;;;2.92;0.80;;;10.90;47.90;;;;;;6835921;26;20398;-70
2024/04/21 02:16:12;;;;;;;0.70;0.50;;;10.90;48.10;;;;;;6840773;26;20065;-68
2024/04/21 02:19:13;;;;;;;0.88;0.60;;;10.80;48.30;;;;;;6807302;26;19997;-67
2024/04/21 02:22:14;;;;;;;2.80;0.73;;;10.80;48.40;;;;;;6840222;26;20009;-67
2024/04/21 02:25:16;;;;;;;2.35;0.63;;;10.80;48.70;;;;;;6841368;26;20547;-66
2024/04/21 02:28:17;;;;;;;0.70;0.68;;;10.90;48.70;;;;;;6779677;26;20023;-69
2024/04/21 02:31:18;;;;;;;0.70;0.70;;;10.80;48.70;;;;;;6806829;26;19994;-68
2024/04/21 02:34:20;;;;;;;3.67;0.80;;;10.70;48.70;;;;;;6792310;26;20421;-68
2024/04/21 02:37:22;;;;;;;2.63;0.80;;;10.70;48.70;;;;;;6787033;26;20498;-68
2024/04/21 02:40:22;;;;;;;1.23;0.88;;;10.80;48.60;;;;;;6791568;26;20025;-69
2024/04/21 02:43:23;;;;;;;0.30;0.30;;;10.70;48.60;;;;;;6807132;26;20453;-67
2024/04/21 02:46:24;;;;;;;1.42;0.43;;;10.70;48.70;;;;;;6840543;26;20308;-67
2024/04/21 02:49:25;;;;;;;0.85;0.57;;;10.70;48.70;;;;;;6840084;26;20073;-67
2024/04/21 02:52:26;;;;;;;1.42;1.10;;;10.60;48.70;;;;;;6806091;26;20001;-66
2024/04/21 02:55:26;;;;;;;1.30;0.57;;;10.60;48.80;;;;;;6834119;26;20001;-68
2024/04/21 02:58:28;;;;;;;0.60;0.50;;;10.50;48.90;;;;;;6838905;26;20574;-70
2024/04/21 03:01:29;;;;;;;1.95;0.82;;;10.40;49.20;;;;;;6837019;25;20001;-67
2024/04/21 03:04:32;;;;;;;0.75;0.60;;;10.30;49.70;;;;;;6839554;25;20293;-67
2024/04/21 03:07:32;;;;;;;1.95;0.70;;;10.20;50.00;;;;;;6851918;25;19997;-68
2024/04/21 03:10:33;;;;;;;0.95;0.63;;;10.10;50.20;;;;;;6837562;26;20406;-67
2024/04/21 03:13:34;;;;;;;3.10;0.40;;;10.10;50.30;;;;;;6836772;25;20082;-67
2024/04/21 03:16:35;;;;;;;0.50;0.40;;;10.00;50.30;;;;;;6839217;25;20124;-66
2024/04/21 03:19:37;;;;;;;2.90;0.80;;;10.00;50.40;;;;;;6836868;25;20474;-66
2024/04/21 03:22:38;;;;;;;8.52;0.68;;;10.00;50.50;;;;;;6839597;26;19998;-68
2024/04/21 03:25:39;;;;;;;0.73;0.50;;;10.00;50.60;;;;;;6805593;26;20468;-68
2024/04/21 03:28:40;;;;;;;2.35;0.57;;;10.00;50.60;;;;;;6838914;25;20068;-68
2024/04/21 03:31:40;;;;;;;0.70;0.65;;;9.90;50.70;;;;;;6836568;26;20001;-68
2024/04/21 03:34:41;;;;;;;0.40;0.40;;;10.00;50.80;;;;;;6806231;25;20037;-68
2024/04/21 03:37:42;;;;;;;0.43;0.43;;;10.00;50.80;;;;;;6836640;25;20077;-67
2024/04/21 03:40:43;;;;;;;0.90;0.35;;;10.00;50.80;;;;;;6836775;25;20010;-67
2024/04/21 03:43:46;;;;;;;2.35;0.47;;;10.00;50.80;;;;;;6836845;26;20001;-67
2024/04/21 03:46:47;;;;;;;1.20;0.45;;;10.00;50.80;;;;;;6836472;26;20008;-66
2024/04/21 03:49:48;;;;;;;1.02;0.60;;;9.90;50.80;;;;;;6837114;26;20021;-68
2024/04/21 03:52:49;;;;;;;1.50;0.70;;;9.90;50.80;;;;;;6836875;26;20008;-67
2024/04/21 03:55:51;;;;;;;0.50;0.50;;;9.90;50.90;;;;;;6838857;25;20120;-68
2024/04/21 03:58:52;;;;;;;2.10;0.45;;;9.80;51.10;;;;;;6775731;26;20077;-66
2024/04/21 04:01:53;;;;;;;1.58;0.70;;;9.70;51.30;;;;;;6838565;26;19993;-67
2024/04/21 04:04:53;;;;;;;3.63;0.93;;;9.60;51.50;;;;;;6805340;26;20049;-68
2024/04/21 04:07:55;;;;;;;3.30;0.70;;;9.60;51.70;;;;;;6838829;26;20330;-67
2024/04/21 04:10:56;;;;;;;2.92;0.75;;;9.50;51.90;;;;;;6806154;26;20005;-67
2024/04/21 04:13:56;;;;;;;5.90;1.17;;;9.50;52.00;;;;;;6838185;26;20758;-67
2024/04/21 04:16:57;;;;;;;1.08;0.70;;;9.40;52.20;;;;;;6804958;25;19993;-68
2024/04/21 04:19:59;;;;;;;0.95;0.60;;;9.40;52.40;;;;;;6805843;26;20009;-68
2024/04/21 04:22:59;;;;;;;5.15;0.88;;;9.40;52.50;;;;;;6772269;26;20026;-67
2024/04/21 04:26:00;;;;;;;1.17;0.68;;;9.40;52.60;;;;;;6805700;26;19998;-67
2024/04/21 04:29:01;;;;;;;2.10;0.88;;;9.50;52.70;;;;;;6838796;26;20074;-66
2024/04/21 04:32:02;;;;;;;1.10;0.88;;;9.50;52.60;;;;;;6837061;26;20445;-68
2024/04/21 04:35:05;;;;;;;0.82;0.68;;;9.50;52.50;;;;;;6804497;26;20017;-69
2024/04/21 04:38:06;;;;;;;2.90;0.85;;;9.60;52.50;;;;;;6803391;26;20093;-66
2024/04/21 04:41:09;;;;;;;1.00;0.65;;;9.60;52.50;;;;;;6838279;25;19993;-68
2024/04/21 04:44:11;;;;;;;1.17;0.57;;;9.60;52.50;;;;;;6804405;26;20002;-67
2024/04/21 04:47:11;;;;;;;0.55;0.40;;;9.50;52.50;;;;;;6838242;26;20422;-67
2024/04/21 04:50:13;;;;;;;1.98;1.08;;;9.50;52.60;;;;;;6804496;26;20021;-67
2024/04/21 04:53:16;;;;;;;1.80;0.65;;;9.40;52.80;;;;;;6837882;26;19993;-68
2024/04/21 04:56:17;;;;;;;6.75;0.95;;;9.40;52.90;;;;;;6837193;26;20002;-67
2024/04/21 04:59:20;;;;;;;0.60;0.50;;;9.30;53.00;;;;;;6804439;26;20132;-67
2024/04/21 05:02:21;;;;;;;3.25;1.27;;;9.30;53.10;;;;;;6836591;26;20742;-67
2024/04/21 05:05:23;;;;;;;0.82;0.60;;;9.30;53.20;;;;;;6805562;26;20100;-68
2024/04/21 05:08:24;;;;;;;5.85;0.70;;;9.30;53.30;;;;;;6805300;26;20029;-69
2024/04/21 05:11:25;;;;;;;1.38;0.80;;;9.20;53.40;;;;;;6835785;26;20001;-68
2024/04/21 05:14:26;;;;;;;6.97;1.52;;;9.20;53.60;;;;;;6734688;26;20078;-67
2024/04/21 05:17:27;;;;;;;4.93;0.70;;;9.20;53.70;;;;;;6836670;25;20003;-67
2024/04/21 05:20:28;;;;;;;1.02;0.65;;;9.10;53.80;;;;;;6802770;25;20177;-66
2024/04/21 05:23:30;;;;;;;2.22;0.93;;;9.10;53.90;;;;;;6803656;26;20011;-67
2024/04/21 05:26:33;;;;;;;1.05;0.80;;;9.10;54.00;;;;;;6804152;26;20301;-68
2024/04/21 05:29:37;;;;;;;1.13;0.70;;;9.10;54.10;;;;;;6805637;26;20001;-67
2024/04/21 05:32:38;;;;;;;2.80;0.93;;;9.10;54.10;;;;;;6805597;26;19994;-67
2024/04/21 05:35:41;;;;;;;6.57;0.75;;;9.20;54.10;;;;;;6774003;26;20030;-67
2024/04/21 05:38:43;;;;;;;0.68;0.57;;;9.20;54.00;;;;;;6836538;26;20127;-68
2024/04/21 05:41:44;;;;;;;5.68;1.13;;;9.10;53.90;;;;;;6837688;26;20024;-68
2024/04/21 05:44:45;;;;;;;3.65;1.25;;;9.10;53.90;;;;;;6804095;26;20065;-67
2024/04/21 05:47:46;;;;;;;1.75;1.08;;;9.20;54.10;;;;;;6820228;25;20025;-68
2024/04/21 05:50:46;;;;;;;2.13;1.10;;;9.10;54.00;;;;;;6837871;26;20001;-69
2024/04/21 05:53:47;;;;;;;1.00;0.90;;;9.10;54.00;;;;;;6807940;26;20389;-67
2024/04/21 05:56:48;;;;;;;2.92;1.63;;;9.10;54.00;;;;;;6837113;26;20009;-68
2024/04/21 05:59:49;;;;;;;2.22;1.23;;;9.20;54.10;;;;;;6838252;26;19997;-68
2024/04/21 06:02:50;;;;;;;3.92;1.38;;;9.20;54.20;;;;;;6838012;25;20012;-67
2024/04/21 06:05:54;;;;;;;8.02;0.88;;;9.20;54.20;;;;;;6840023;25;19993;-69
2024/04/21 06:08:55;;;;;;;1.83;1.50;;;9.20;54.10;;;;;;6840592;25;20005;-67
2024/04/21 06:11:57;;;;;;;1.42;0.80;;;9.20;54.10;;;;;;6838844;26;19997;-67
2024/04/21 06:14:57;;;;;;;3.65;0.82;;;9.20;54.20;;;;;;6839041;26;20414;-68
2024/04/21 06:17:58;;;;;;;2.17;1.17;;;9.30;54.40;;;;;;6808860;26;20039;-67
2024/04/21 06:21:00;;;;;;;1.42;0.90;;;9.30;54.40;;;;;;6841224;25;20927;-68
2024/04/21 06:24:01;;;;;;;8.68;2.10;;;9.40;54.30;;;;;;6840859;25;20008;-68
2024/04/21 06:27:02;;;;;;;2.25;1.45;;;9.50;54.20;;;;;;6807272;26;20001;-67
2024/04/21 06:30:03;;;;;;;0.88;0.80;;;9.60;54.10;;;;;;6807951;26;20027;-68
2024/04/21 06:33:04;;;;;;;7.53;2.08;;;9.60;53.90;;;;;;6806377;26;19998;-68
2024/04/21 06:36:05;;;;;;;18.20;1.02;;;9.70;53.80;;;;;;6808376;26;19997;-67
2024/04/21 06:39:06;;;;;;;2.17;0.77;;;9.60;53.80;;;;;;6808310;26;19994;-67
2024/04/21 06:42:08;;;;;;;2.70;1.08;;;9.70;53.80;;;;;;6841114;25;19994;-68
2024/04/21 06:45:09;;;;;;;1.17;0.90;;;9.70;53.80;;;;;;6838871;26;20008;-68
2024/04/21 06:48:11;;;;;;;2.00;1.08;;;9.80;53.60;;;;;;6839200;26;20017;-66
2024/04/21 06:51:12;;;;;;;1.70;1.08;;;9.80;53.60;;;;;;6838453;26;19994;-68
2024/04/21 06:54:13;;;;;;;1.58;0.85;;;9.80;53.50;;;;;;6840274;25;20009;-68
2024/04/21 06:57:14;;;;;;;0.70;0.57;;;9.80;53.40;;;;;;6807885;25;20079;-68
2024/04/21 07:00:15;;;;;;;3.53;1.17;;;9.80;53.40;;;;;;6807028;26;20013;-68
2024/04/21 07:03:17;;;;;;;1.20;1.10;;;9.80;53.40;;;;;;6839512;26;20584;-66
2024/04/21 07:06:17;;;;;;;1.02;0.75;;;9.80;53.40;;;;;;6777471;26;20041;-69
2024/04/21 07:09:18;;;;;;;1.33;1.23;;;9.90;53.40;;;;;;6840930;26;20006;-65
2024/04/21 07:12:19;;;;;;;0.65;0.65;;;10.00;53.20;;;;;;6838627;26;20016;-67
2024/04/21 07:15:20;;;;;;;2.40;0.77;;;10.10;53.10;;;;;;6808781;26;19993;-68
2024/04/21 07:18:21;;;;;;;1.17;0.80;;;10.20;53.10;;;;;;6807574;25;20001;-68
2024/04/21 07:21:21;;;;;;;5.35;0.88;;;10.30;52.90;;;;;;6827833;26;20001;-67
2024/04/21 07:24:22;;;;;;;0.55;0.55;;;10.40;52.70;;;;;;6806600;26;20429;-67
2024/04/21 07:27:36;;;;;;;1.02;0.75;;;10.40;52.50;;;;;;6838919;25;19994;-66
2024/04/21 07:30:37;;;;;;;0.85;0.70;;;10.60;52.40;;;;;;6775932;26;20627;-66
2024/04/21 07:33:38;;;;;;;4.40;1.10;;;10.70;52.20;;;;;;6806323;26;19994;-66
2024/04/21 07:41:08;;;;;;;0.75;0.60;;;10.80;51.80;;;;;;6793505;26;19994;-68
2024/04/21 07:44:09;;;;;;;1.20;0.60;;;10.90;51.60;;;;;;6809511;26;20111;-67
2024/04/21 07:47:10;;;;;;;10.95;1.23;;;11.10;51.40;;;;;;6807921;26;20025;-68
2024/04/21 07:50:11;;;;;;;1.33;0.85;;;11.20;51.20;;;;;;6808519;26;20370;-68
2024/04/21 07:53:12;;;;;;;8.77;1.48;;;11.40;50.90;;;;;;6814044;26;19997;-67
2024/04/21 07:56:14;;;;;;;1.33;1.20;;;11.50;50.60;;;;;;6827285;26;20402;-67
2024/04/21 07:59:15;;;;;;;0.70;0.60;;;11.70;50.40;;;;;;6838181;25;20020;-68
2024/04/21 08:02:15;;;;;;;14.52;1.17;;;11.90;50.10;;;;;;6806170;26;20002;-70
2024/04/21 08:05:16;;;;;;;3.47;1.00;;;12.00;49.80;;;;;;6838732;25;20347;-69
2024/04/21 08:08:18;;;;;;;0.88;0.73;;;12.10;49.50;;;;;;6836757;26;20469;-69
2024/04/21 08:11:19;;;;;;;0.88;0.73;;;12.20;49.20;;;;;;6837396;26;19997;-68
2024/04/21 08:14:19;;;;;;;1.67;0.90;;;12.40;49.00;;;;;;6836838;26;20283;-67
2024/04/21 08:17:20;;;;;;;0.93;0.70;;;12.60;48.70;;;;;;6806046;26;20009;-68
2024/04/21 08:20:21;;;;;;;1.88;0.77;;;12.80;48.30;;;;;;6836349;25;19993;-68
2024/04/21 08:23:22;;;;;;;11.23;1.42;;;13.00;48.00;;;;;;6836605;26;20409;-68
2024/04/21 08:26:23;;;;;;;1.92;1.00;;;13.20;47.60;;;;;;6838258;26;20005;-68
2024/04/21 08:29:24;;;;;;;2.10;0.95;;;13.40;47.00;;;;;;6836289;26;19993;-68
2024/04/21 08:32:25;;;;;;;1.73;0.88;;;13.40;46.40;;;;;;6836997;26;20013;-68
2024/04/21 08:35:25;;;;;;;2.63;0.70;;;13.50;46.20;;;;;;6835063;26;20539;-67
2024/04/21 08:38:28;;;;;;;5.22;0.90;;;13.50;45.80;;;;;;6837971;26;19993;-67
2024/04/21 08:41:33;;;;;;;4.20;1.05;;;13.50;45.50;;;;;;6835488;26;20009;-67
2024/04/21 08:44:35;;;;;;;4.25;1.02;;;13.50;45.40;;;;;;6836689;25;20652;-68
2024/04/21 08:47:37;;;;;;;3.42;1.50;;;13.60;45.50;;;;;;6803449;26;20036;-67
2024/04/21 08:50:40;;;;;;;1.55;1.10;;;13.80;45.50;;;;;;6837405;25;20475;-67
2024/04/21 08:53:41;;;;;;;2.25;1.17;;;13.90;45.30;;;;;;6837561;25;20111;-68
2024/04/21 08:56:51;;;;;;;4.22;1.17;;;13.90;45.30;;;;;;6836404;26;19993;-67
2024/04/21 08:59:58;;;;;;;7.22;1.45;;;13.90;45.20;;;;;;6837020;25;20017;-68
2024/04/21 09:03:00;;;;;;;4.07;1.58;;;14.00;45.20;;;;;;6834925;26;20132;-68
2024/04/21 09:06:03;;;;;;;2.05;1.45;;;14.20;45.20;;;;;;6805149;26;20004;-67
2024/04/21 09:09:06;;;;;;;3.75;1.55;;;14.30;45.00;;;;;;6806406;26;20809;-67
2024/04/21 09:12:07;;;;;;;3.28;1.73;;;14.30;44.80;;;;;;6835583;26;20042;-69
2024/04/21 09:15:09;;;;;;;3.55;1.77;;;14.40;44.80;;;;;;6837916;26;20011;-69
2024/04/21 09:18:10;;;;;;;2.10;1.20;;;14.50;44.60;;;;;;6834825;26;20128;-68
2024/04/21 09:21:11;;;;;;;4.72;1.85;;;14.60;44.30;;;;;;6833953;26;20033;-68
2024/04/21 09:24:12;;;;;;;3.63;1.80;;;14.60;44.00;;;;;;6834261;26;20016;-69
2024/04/21 09:27:13;;;;;;;3.55;1.55;;;14.70;43.80;;;;;;6802304;26;20299;-67
2024/04/21 09:30:14;;;;;;;5.05;1.92;;;14.80;43.60;;;;;;6838409;25;20035;-67
2024/04/21 09:33:17;;;;;;;1.58;1.35;;;14.80;43.50;;;;;;6835757;26;20070;-67
2024/04/21 09:36:18;;;;;;;3.83;2.13;;;14.80;43.10;;;;;;6836176;25;19997;-68
2024/04/21 09:39:20;;;;;;;3.47;1.65;;;14.70;42.90;;;;;;6838235;25;19994;-68
2024/04/21 09:42:23;;;;;;;5.15;1.98;;;14.70;42.90;;;;;;6804328;26;20033;-66
2024/04/21 09:45:30;;;;;;;1.73;1.40;;;14.60;42.90;;;;;;6833360;25;20012;-68
2024/04/21 09:48:33;;;;;;;3.72;1.67;;;14.50;42.80;;;;;;6805822;26;20122;-67
2024/04/21 09:51:35;;;;;;;3.58;1.70;;;14.60;42.70;;;;;;6787154;26;19998;-67
2024/04/21 09:54:38;;;;;;;3.58;1.38;;;14.70;42.30;;;;;;6834396;26;20558;-68
2024/04/21 09:57:40;;;;;;;1.38;1.27;;;14.80;42.00;;;;;;6804657;26;20009;-67
2024/04/21 10:00:44;;;;;;;3.25;1.80;;;15.00;41.70;;;;;;6836789;26;20021;-67
2024/04/21 10:03:50;;;;;;;2.78;1.52;;;15.00;41.50;;;;;;6804389;26;20120;-68
2024/04/21 10:06:51;;;;;;;3.90;1.63;;;15.10;41.30;;;;;;6772891;26;20013;-68
2024/04/21 10:09:53;;;;;;;2.10;1.45;;;15.00;41.30;;;;;;6833720;26;20420;-67
2024/04/21 10:12:55;;;;;;;4.50;2.00;;;15.00;41.30;;;;;;6804055;26;20457;-67
2024/04/21 10:15:57;;;;;;;1.90;1.30;;;15.10;41.30;;;;;;6830747;26;20005;-68
2024/04/21 10:19:05;;;;;;;4.50;1.98;;;15.00;41.00;;;;;;6803066;26;20283;-67
2024/04/21 10:22:07;;;;;;;2.17;1.58;;;15.00;41.10;;;;;;6835889;26;20310;-68
2024/04/21 10:25:08;;;;;;;1.67;1.42;;;14.90;41.10;;;;;;6832989;26;19997;-67
2024/04/21 10:28:10;;;;;;;2.20;1.65;;;14.90;41.10;;;;;;6834660;26;20068;-70
2024/04/21 10:31:11;;;;;;;1.10;1.00;;;14.90;41.40;;;;;;6802667;26;20051;-68
2024/04/21 10:34:12;;;;;;;3.00;1.50;;;14.90;41.50;;;;;;6803672;26;20140;-65
2024/04/21 10:37:23;;;;;;;3.65;1.45;;;15.00;41.20;;;;;;6840278;26;21417;-66
2024/04/21 10:40:24;;;;;;;2.42;1.42;;;14.90;41.10;;;;;;6808674;26;20117;-67
2024/04/21 10:43:27;;;;;;;1.17;0.82;;;14.90;41.30;;;;;;6808065;26;20030;-67
2024/04/21 10:46:29;;;;;;;6.35;1.85;;;15.00;41.30;;;;;;6837039;26;20009;-67
2024/04/21 10:49:29;;;;;;;2.75;1.30;;;15.00;41.30;;;;;;6807106;26;20004;-66
2024/04/21 10:52:30;;;;;;;1.40;1.30;;;15.20;41.10;;;;;;6806599;26;19997;-67
2024/04/21 10:55:33;;;;;;;4.20;1.67;;;15.30;41.00;;;;;;6778526;26;20003;-68
2024/04/21 10:58:34;;;;;;;1.45;1.02;;;15.20;40.80;;;;;;6837387;26;19994;-67
2024/04/21 11:01:35;;;;;;;7.18;1.60;;;15.10;40.90;;;;;;6807249;26;20045;-69
2024/04/21 11:04:36;;;;;;;3.95;1.58;;;15.30;41.10;;;;;;6836880;26;20004;-67
2024/04/21 11:07:37;;;;;;;2.70;1.38;;;15.90;40.40;;;;;;6838747;26;19998;-68
2024/04/21 11:10:40;;;;;;;3.42;1.67;;;16.30;39.50;;;;;;6824023;26;20484;-68
2024/04/21 11:13:41;;;;;;;2.72;1.35;;;16.30;39.00;;;;;;6836282;25;20037;-71
2024/04/21 11:16:50;;;;;;;4.43;1.98;;;16.10;38.60;;;;;;6804441;26;20077;-68
2024/04/21 11:19:51;;;;;;;2.95;1.00;;;15.90;38.80;;;;;;6790949;26;20008;-68
2024/04/21 11:22:53;;;;;;;1.50;1.15;;;15.60;39.10;;;;;;6836434;26;20066;-69
2024/04/21 11:25:54;;;;;;;5.38;1.45;;;15.50;39.50;;;;;;6835848;26;20102;-68
2024/04/21 11:28:58;;;;;;;1.88;1.38;;;15.50;39.50;;;;;;6836343;26;20009;-68
2024/04/21 11:31:59;;;;;;;5.88;1.67;;;15.60;39.40;;;;;;6836634;26;20481;-67
2024/04/21 11:35:00;;;;;;;3.88;1.00;;;15.70;39.10;;;;;;6835814;26;20001;-67
2024/04/21 11:38:01;;;;;;;4.32;0.90;;;15.80;38.80;;;;;;6825393;26;20409;-68
2024/04/21 11:41:04;;;;;;;1.55;0.80;;;15.70;38.70;;;;;;6836056;26;20001;-68
2024/04/21 11:44:15;;;;;;;6.40;1.17;;;15.50;38.70;;;;;;6837022;26;19993;-68
2024/04/21 11:47:20;;;;;;;3.70;1.10;;;15.40;38.90;;;;;;6836149;26;20365;-68
2024/04/21 11:50:23;;;;;;;3.63;1.35;;;15.40;39.00;;;;;;6837093;26;20017;-68
2024/04/21 11:53:26;;;;;;;1.95;1.27;;;15.40;39.10;;;;;;6839119;26;20009;-67
2024/04/21 11:56:27;;;;;;;5.90;2.47;;;15.40;39.00;;;;;;6837011;26;20004;-68
2024/04/21 11:59:28;;;;;;;3.28;1.60;;;15.50;39.00;;;;;;6836132;26;20513;-68
2024/04/21 12:02:29;;;;;;;2.05;0.80;;;15.60;38.90;;;;;;6836474;26;20032;-68
2024/04/21 12:05:30;;;;;;;1.45;0.90;;;15.70;38.60;;;;;;6836805;26;19998;-66
2024/04/21 12:08:32;;;;;;;2.72;1.42;;;15.80;38.50;;;;;;6835815;26;20008;-68
2024/04/21 12:11:33;;;;;;;1.23;0.93;;;15.90;38.50;;;;;;6838124;25;20013;-68
2024/04/21 12:14:33;;;;;;;6.95;1.38;;;15.90;38.70;;;;;;6837690;26;20100;-67
2024/04/21 12:17:35;;;;;;;5.97;1.55;;;16.00;38.70;;;;;;6836638;25;19998;-67
2024/04/21 12:20:36;;;;;;;4.70;1.30;;;16.10;38.60;;;;;;6838298;25;20074;-68
2024/04/21 12:23:37;;;;;;;1.00;0.90;;;16.20;38.60;;;;;;6839719;25;19998;-68
2024/04/21 12:26:38;;;;;;;5.97;1.50;;;16.40;38.60;;;;;;6835900;26;20376;-67
2024/04/21 12:29:38;;;;;;;5.93;1.10;;;16.30;38.40;;;;;;6836077;26;20426;-67
2024/04/21 12:32:39;;;;;;;3.15;1.25;;;16.20;38.40;;;;;;6835628;25;20040;-66
2024/04/21 12:35:42;;;;;;;3.65;0.88;;;16.10;38.40;;;;;;6835280;26;20081;-66
2024/04/21 12:38:55;;;;;;;2.72;1.13;;;15.90;38.40;;;;;;6837879;26;20111;-68
2024/04/21 12:41:56;;;;;;;2.80;1.05;;;15.60;38.90;;;;;;6839735;26;20069;-67
2024/04/21 12:44:57;;;;;;;4.93;1.20;;;15.70;39.20;;;;;;6836041;26;20017;-67
2024/04/21 12:47:58;;;;;;;2.45;1.27;;;16.10;38.70;;;;;;6835843;26;20454;-68
2024/04/21 12:50:59;;;;;;;1.70;1.05;;;16.50;37.80;;;;;;6809630;25;20142;-68
2024/04/21 12:54:00;;;;;;;3.90;1.20;;;16.80;37.10;;;;;;6796959;25;20008;-68
2024/04/21 12:57:00;;;;;;;2.85;1.15;;;16.80;36.80;;;;;;6811172;26;19998;-68
2024/04/21 13:00:01;;;;;;;3.53;1.40;;;16.60;36.90;;;;;;6815501;25;19997;-69
2024/04/21 13:03:03;;;;;;;8.90;1.42;;;16.50;37.40;;;;;;6804536;26;20005;-67
2024/04/21 13:06:04;;;;;;;4.97;1.38;;;16.70;37.40;;;;;;6831583;26;20058;-67
2024/04/21 13:09:05;;;;;;;1.20;1.08;;;16.90;37.00;;;;;;6805000;26;20033;-69
2024/04/21 13:12:06;;;;;;;5.15;0.98;;;17.60;36.20;;;;;;6775777;26;19993;-68
2024/04/21 13:15:07;;;;;;;8.38;1.23;;;18.80;33.80;;;;;;6831273;26;19993;-68
2024/04/21 13:18:08;;;;;;;2.88;0.90;;;19.70;31.90;;;;;;6784724;26;20039;-67
2024/04/21 13:21:09;;;;;;;0.57;0.57;;;20.40;30.20;;;;;;6765842;26;20009;-68
2024/04/21 13:24:10;;;;;;;3.83;1.00;;;20.40;30.00;;;;;;6760977;26;20395;-69
2024/04/21 13:27:23;;;;;;;4.05;1.33;;;20.00;30.10;;;;;;6770228;26;20004;-69
2024/04/21 13:30:25;;;;;;;3.97;1.02;;;19.60;30.80;;;;;;6788632;26;20009;-68
2024/04/21 13:33:25;;;;;;;8.77;1.08;;;19.20;31.70;;;;;;6805797;26;20566;-69
2024/04/21 13:36:26;;;;;;;4.20;1.17;;;18.70;32.30;;;;;;6838382;26;20072;-68
2024/04/21 13:39:27;;;;;;;0.70;0.70;;;18.20;32.50;;;;;;6781959;25;19998;-67
2024/04/21 13:42:30;;;;;;;2.00;1.13;;;17.70;33.00;;;;;;6773538;25;20077;-67
2024/04/21 13:45:30;;;;;;;2.45;0.95;;;17.30;33.40;;;;;;6838512;26;20458;-67
2024/04/21 13:48:32;;;;;;;4.20;1.05;;;17.00;33.90;;;;;;6825722;26;20115;-68
2024/04/21 13:51:33;;;;;;;1.85;0.73;;;17.20;34.10;;;;;;6794878;26;20031;-69
2024/04/21 13:54:37;;;;;;;1.15;0.85;;;17.40;34.00;;;;;;6828679;26;20026;-67
2024/04/21 13:57:38;;;;;;;1.08;0.90;;;17.90;33.90;;;;;;6776507;26;20009;-68
2024/04/21 14:00:39;;;;;;;1.77;0.85;;;18.60;32.80;;;;;;6838302;26;20017;-69
2024/04/21 14:03:40;;;;;;;2.40;1.00;;;20.10;30.90;;;;;;6797968;25;20079;-69
2024/04/21 14:06:42;;;;;;;2.65;0.70;;;21.30;28.60;;;;;;6764687;26;19998;-69
2024/04/21 14:09:44;;;;;;;3.08;1.27;;;22.40;27.30;;;;;;6839334;26;20008;-69
2024/04/21 14:12:45;;;;;;;1.08;0.68;;;23.30;26.00;;;;;;6809315;26;19994;-68
2024/04/21 14:15:46;;;;;;;4.47;0.77;;;22.90;25.60;;;;;;6810106;26;20417;-69
2024/04/21 14:18:47;;;;;;;2.00;0.90;;;21.80;26.60;;;;;;6809381;26;20030;-68
2024/04/21 14:21:47;;;;;;;1.60;0.90;;;20.70;28.10;;;;;;6808912;26;20414;-69
2024/04/21 14:24:50;;;;;;;4.25;1.00;;;19.80;29.30;;;;;;6808480;26;20333;-70
2024/04/21 14:27:51;;;;;;;1.80;1.08;;;19.30;30.00;;;;;;6780091;26;20036;-68
2024/04/21 14:30:51;;;;;;;4.72;1.33;;;19.10;30.20;;;;;;6844095;26;19993;-69
2024/04/21 14:33:53;;;;;;;2.80;0.80;;;18.90;30.50;;;;;;6808663;26;20321;-67
2024/04/21 14:36:54;;;;;;;2.05;0.85;;;18.80;30.50;;;;;;6776235;26;20005;-69
2024/04/21 14:44:25;;;;;;;5.45;0.90;;;18.30;31.30;;;;;;6835046;26;20017;-70
2024/04/21 14:47:28;;;;;;;2.75;0.77;;;18.20;31.30;;;;;;6807913;26;19998;-69
2024/04/21 14:50:28;;;;;;;0.43;0.38;;;18.20;31.20;;;;;;6839700;26;20441;-69
2024/04/21 14:53:29;;;;;;;0.57;0.47;;;18.10;31.20;;;;;;6839395;25;20057;-68
2024/04/21 14:56:30;;;;;;;0.25;0.25;;;17.90;31.50;;;;;;6831781;26;20005;-68
2024/04/21 14:59:31;;;;;;;0.73;0.45;;;17.60;31.90;;;;;;6837892;26;20081;-69
2024/04/21 15:02:33;;;;;;;0.40;0.30;;;17.30;32.20;;;;;;6841589;25;20480;-68
2024/04/21 15:05:33;;;;;;;1.30;0.73;;;17.00;33.50;;;;;;6839341;25;19994;-67
2024/04/21 15:08:35;;;;;;;0.90;0.50;;;16.50;35.70;;;;;;6840738;26;20033;-67
2024/04/21 15:11:36;;;;;;;1.27;0.47;;;15.90;37.40;;;;;;6789128;26;20063;-68
2024/04/21 15:14:37;;;;;;;0.52;0.40;;;15.50;38.00;;;;;;6837857;26;19993;-68
2024/04/21 15:17:38;;;;;;;1.67;0.65;;;15.10;38.50;;;;;;6840614;25;20013;-68
2024/04/21 15:20:39;;;;;;;1.42;0.82;;;15.00;39.30;;;;;;6837072;26;20621;-68
2024/04/21 15:23:40;;;;;;;0.50;0.30;;;14.80;39.90;;;;;;6839148;26;20001;-67
2024/04/21 15:26:41;;;;;;;0.73;0.60;;;15.00;40.10;;;;;;6837684;26;19994;-68
2024/04/21 15:29:41;;;;;;;0.30;0.30;;;15.10;39.80;;;;;;6838252;25;20319;-68
2024/04/21 15:32:45;;;;;;;0.40;0.38;;;15.20;39.90;;;;;;6838072;25;20006;-69
2024/04/21 15:35:46;;;;;;;0.73;0.40;;;15.30;40.10;;;;;;6837237;26;19997;-68
2024/04/21 15:38:47;;;;;;;1.40;0.40;;;15.40;40.10;;;;;;6806984;26;20019;-68
2024/04/21 15:41:48;;;;;;;1.15;0.50;;;15.50;40.00;;;;;;6838331;26;20428;-68
2024/04/21 15:44:49;;;;;;;0.38;0.38;;;15.80;40.10;;;;;;6806957;26;20438;-68
2024/04/21 15:47:50;;;;;;;0.45;0.40;;;16.00;39.80;;;;;;6838146;26;20005;-69
2024/04/21 15:50:51;;;;;;;0.43;0.43;;;16.20;39.70;;;;;;6839138;25;20127;-68
2024/04/21 15:53:52;;;;;;;2.10;0.60;;;16.80;39.00;;;;;;6836482;26;20799;-68
2024/04/21 15:56:53;;;;;;;1.98;0.47;;;18.40;37.20;;;;;;6882722;25;20011;-69
2024/04/21 15:59:54;;;;;;;0.55;0.52;;;20.30;34.40;;;;;;6780550;26;20013;-69